Time;durP1;ratioP1;P1;durP2;ratioP2;P2;SDS_P1;SDS_P2;PMS_P1;PMS_P2;Temp;Humidity;BMP_temperature;BMP_pressure;BME280_temperature;BME280_humidity;BME280_pressure;Samples;Min_cycle;Max_cycle;Signal;HPM_P1;HPM_P2
2022/12/23 00:00:03;;;;;;;15.52;4.07;;;12.40;98.90;;;;;;5083581;28;20040;-54
2022/12/23 00:02:29;;;;;;;21.77;5.22;;;12.40;98.90;;;;;;5100456;28;20043;-55
2022/12/23 00:04:54;;;;;;;32.78;5.47;;;12.40;98.90;;;;;;5083444;28;20032;-55
2022/12/23 00:07:20;;;;;;;17.33;4.75;;;12.40;98.90;;;;;;5084947;28;20024;-54
2022/12/23 00:09:45;;;;;;;26.08;5.18;;;12.40;98.90;;;;;;5100332;28;20031;-54
2022/12/23 00:15:07;;;;;;;24.33;4.60;;;12.30;99.00;;;;;;5098014;28;20082;-54
2022/12/23 00:17:33;;;;;;;18.60;4.63;;;12.30;99.00;;;;;;5084838;28;20021;-55
2022/12/23 00:19:59;;;;;;;15.20;4.28;;;12.30;99.10;;;;;;5100235;28;20040;-55
2022/12/23 00:25:09;;;;;;;17.17;5.00;;;12.30;99.20;;;;;;5084675;28;20040;-55
2022/12/23 00:27:34;;;;;;;15.40;4.15;;;12.30;99.20;;;;;;5083352;28;20020;-55
2022/12/23 00:30:00;;;;;;;20.23;3.85;;;12.30;99.20;;;;;;5084605;28;20024;-55
2022/12/23 00:32:25;;;;;;;16.38;3.72;;;12.30;99.20;;;;;;5084564;28;20035;-54
2022/12/23 00:34:51;;;;;;;18.25;3.65;;;12.30;99.30;;;;;;5084821;28;20353;-55
2022/12/23 00:37:16;;;;;;;22.65;4.32;;;12.30;99.40;;;;;;5088518;28;20067;-54
2022/12/23 00:45:15;;;;;;;10.20;2.92;;;12.30;99.60;;;;;;5101384;28;20052;-55
2022/12/23 00:50:28;;;;;;;9.88;3.20;;;12.30;99.70;;;;;;5101039;28;20039;-55
2022/12/23 00:52:54;;;;;;;14.43;3.17;;;12.20;99.70;;;;;;5088240;28;20093;-55
2022/12/23 00:55:20;;;;;;;12.57;3.03;;;12.20;99.80;;;;;;5103630;28;20032;-54
2022/12/23 00:57:45;;;;;;;9.00;2.60;;;12.30;99.90;;;;;;5088271;28;20021;-54
2022/12/23 01:00:11;;;;;;;10.20;3.33;;;12.20;99.90;;;;;;5088157;28;20032;-55
2022/12/23 01:05:37;;;;;;;13.32;3.13;;;12.20;99.90;;;;;;5086770;28;20487;-54
2022/12/23 01:08:11;;;;;;;13.38;3.15;;;12.20;99.90;;;;;;5086492;28;20039;-55
2022/12/23 01:10:38;;;;;;;7.68;2.38;;;12.20;99.90;;;;;;5086623;28;20037;-55
2022/12/23 01:13:04;;;;;;;8.65;2.45;;;12.20;99.90;;;;;;5087866;28;20441;-55
2022/12/23 01:15:29;;;;;;;8.45;2.72;;;12.20;99.90;;;;;;5086287;28;20028;-54
2022/12/23 01:17:55;;;;;;;7.28;2.83;;;12.20;99.90;;;;;;5086339;28;20031;-55
2022/12/23 01:20:20;;;;;;;12.00;2.70;;;12.20;99.90;;;;;;5086446;28;20085;-54
2022/12/23 01:22:46;;;;;;;8.00;2.35;;;12.20;99.90;;;;;;5087641;28;20368;-54
2022/12/23 01:25:12;;;;;;;12.77;2.47;;;12.10;99.90;;;;;;5087787;28;20056;-54
2022/12/23 01:27:37;;;;;;;6.22;2.30;;;12.10;99.90;;;;;;5087776;28;20025;-54
2022/12/23 01:30:03;;;;;;;10.23;2.38;;;12.10;99.90;;;;;;5086182;28;20052;-55
2022/12/23 01:32:29;;;;;;;8.00;1.88;;;12.10;99.90;;;;;;5103211;28;20161;-55
2022/12/23 01:34:54;;;;;;;10.70;2.20;;;12.10;99.90;;;;;;5086042;28;20020;-54
2022/12/23 01:37:20;;;;;;;4.40;1.92;;;12.10;99.90;;;;;;5087624;28;20043;-55
2022/12/23 01:39:45;;;;;;;8.02;2.38;;;12.10;99.90;;;;;;5085867;28;20033;-55
2022/12/23 01:45:17;;;;;;;6.00;1.80;;;12.10;99.90;;;;;;5087288;28;20059;-55
2022/12/23 01:48:04;;;;;;;6.45;2.00;;;12.10;99.90;;;;;;5101392;28;20040;-55
2022/12/23 01:50:36;;;;;;;6.05;1.92;;;12.10;99.90;;;;;;5082257;28;20096;-55
2022/12/23 01:53:05;;;;;;;8.68;2.33;;;12.10;99.90;;;;;;5102843;28;20088;-54
2022/12/23 01:55:34;;;;;;;4.15;1.52;;;12.10;99.90;;;;;;5085755;28;20084;-55
2022/12/23 01:58:05;;;;;;;4.32;1.80;;;12.10;99.90;;;;;;5085686;28;20102;-55
2022/12/23 02:09:15;;;;;;;3.45;1.58;;;12.10;99.90;;;;;;5099923;28;20157;-55
2022/12/23 02:11:35;;;;;;;8.30;1.98;;;12.10;99.90;;;;;;5086943;28;20039;-55
2022/12/23 02:17:06;;;;;;;4.82;1.80;;;12.10;99.90;;;;;;5099943;28;20078;-55
2022/12/23 02:20:11;;;;;;;5.68;1.80;;;12.10;99.90;;;;;;5085372;28;20092;-55
2022/12/23 02:22:48;;;;;;;5.30;1.70;;;12.10;99.90;;;;;;5086205;28;20109;-55
2022/12/23 02:25:17;;;;;;;2.78;1.50;;;12.10;99.90;;;;;;5085077;28;20108;-55
2022/12/23 02:27:54;;;;;;;3.33;1.45;;;12.10;99.90;;;;;;5086534;28;20040;-55
2022/12/23 02:30:29;;;;;;;5.53;1.48;;;12.10;99.90;;;;;;5086486;28;20059;-55
2022/12/23 02:33:32;;;;;;;3.33;1.60;;;12.10;99.90;;;;;;5085262;28;20021;-55
2022/12/23 02:36:17;;;;;;;3.53;1.60;;;12.10;99.90;;;;;;5085085;28;20061;-55
2022/12/23 02:39:03;;;;;;;3.90;1.20;;;12.10;99.90;;;;;;5099484;28;20044;-55
2022/12/23 02:41:35;;;;;;;4.55;1.10;;;12.10;99.90;;;;;;5099837;28;20021;-55
2022/12/23 02:44:13;;;;;;;4.55;1.10;;;12.10;99.90;;;;;;5101462;28;20043;-55
2022/12/23 02:46:46;;;;;;;4.95;1.25;;;12.10;99.90;;;;;;5101593;28;20028;-55
2022/12/23 02:49:12;;;;;;;4.47;1.20;;;12.10;99.90;;;;;;5101516;28;20043;-55
2022/12/23 02:51:41;;;;;;;4.68;1.50;;;12.10;99.90;;;;;;5101516;28;20020;-54
2022/12/23 02:54:08;;;;;;;2.30;1.15;;;12.10;99.90;;;;;;5084640;28;20472;-55
2022/12/23 02:56:34;;;;;;;4.03;1.17;;;12.10;99.90;;;;;;5084586;28;20044;-55
2022/12/23 02:59:06;;;;;;;4.15;1.50;;;12.10;99.90;;;;;;5084447;28;20059;-55
2022/12/23 03:01:32;;;;;;;2.55;1.20;;;12.10;99.90;;;;;;5101324;28;20016;-55
2022/12/23 03:03:58;;;;;;;2.88;1.10;;;12.10;99.90;;;;;;5084376;28;20087;-55
2022/12/23 03:06:29;;;;;;;2.92;1.10;;;12.10;99.90;;;;;;5085411;28;20028;-55
2022/12/23 03:08:55;;;;;;;1.58;1.10;;;12.10;99.90;;;;;;5101223;28;20059;-55
2022/12/23 03:11:21;;;;;;;1.50;0.90;;;12.10;99.90;;;;;;5101121;28;20027;-55
2022/12/23 03:14:08;;;;;;;3.63;1.20;;;12.10;99.90;;;;;;5084386;28;20028;-55
2022/12/23 03:16:49;;;;;;;1.98;0.80;;;12.10;99.90;;;;;;5085529;28;20051;-54
2022/12/23 03:19:31;;;;;;;2.65;0.75;;;12.10;99.90;;;;;;5085675;28;20044;-55
2022/12/23 03:22:18;;;;;;;1.75;0.90;;;12.10;99.90;;;;;;5099443;28;20025;-55
2022/12/23 03:24:47;;;;;;;1.50;0.73;;;12.10;99.90;;;;;;5084109;28;20127;-54
2022/12/23 03:27:37;;;;;;;2.17;0.80;;;12.10;99.90;;;;;;5100820;28;20032;-55
2022/12/23 03:30:04;;;;;;;2.20;0.80;;;12.10;99.90;;;;;;5084181;28;20044;-54
2022/12/23 03:32:32;;;;;;;1.92;0.90;;;12.10;99.90;;;;;;5100776;28;20024;-55
2022/12/23 03:34:58;;;;;;;1.98;0.80;;;12.10;99.90;;;;;;5083958;28;20039;-55
2022/12/23 03:37:24;;;;;;;4.90;1.00;;;12.10;99.90;;;;;;5100849;28;20025;-55
2022/12/23 03:39:57;;;;;;;5.90;1.15;;;12.10;99.90;;;;;;5083884;28;20040;-55
2022/12/23 03:42:33;;;;;;;2.83;0.47;;;12.10;99.90;;;;;;5083933;28;20530;-55
2022/12/23 03:45:00;;;;;;;4.72;0.63;;;12.10;99.90;;;;;;5083553;28;20044;-55
2022/12/23 03:47:59;;;;;;;1.83;0.98;;;12.10;99.90;;;;;;5083572;28;20150;-55
2022/12/23 03:50:25;;;;;;;3.78;0.70;;;12.10;99.90;;;;;;5072567;28;20040;-55
2022/12/23 03:53:07;;;;;;;2.80;0.80;;;12.10;99.90;;;;;;5083600;28;20059;-55
2022/12/23 03:55:42;;;;;;;3.25;1.00;;;12.10;99.90;;;;;;5083805;28;20041;-55
2022/12/23 03:58:16;;;;;;;1.85;0.63;;;12.10;99.90;;;;;;5100478;28;20063;-55
2022/12/23 04:00:49;;;;;;;1.38;0.80;;;12.10;99.90;;;;;;5083792;28;20044;-55
2022/12/23 04:03:25;;;;;;;2.08;0.77;;;12.10;99.90;;;;;;5083719;28;20033;-55
2022/12/23 04:05:52;;;;;;;;;;;12.10;99.90;;;;;;5083830;28;20051;-54
2022/12/23 04:08:26;;;;;;;2.65;0.75;;;12.10;99.90;;;;;;5083852;28;19909;-54
2022/12/23 04:10:51;;;;;;;2.53;0.70;;;12.10;99.90;;;;;;5082974;28;20543;-54
2022/12/23 04:13:17;;;;;;;2.70;0.88;;;12.10;99.90;;;;;;5083676;28;20028;-55
2022/12/23 04:15:42;;;;;;;4.97;0.98;;;12.10;99.90;;;;;;5100319;28;20465;-55
2022/12/23 04:18:08;;;;;;;2.63;0.70;;;12.10;99.90;;;;;;5083633;28;20059;-55
2022/12/23 04:20:35;;;;;;;2.13;0.90;;;12.10;99.90;;;;;;5085467;28;20032;-53
2022/12/23 04:23:00;;;;;;;3.25;0.80;;;12.20;99.90;;;;;;5084032;28;20021;-54
2022/12/23 04:25:26;;;;;;;1.52;0.95;;;12.10;99.90;;;;;;5100194;28;20059;-55
2022/12/23 04:27:51;;;;;;;2.00;0.73;;;12.10;99.90;;;;;;5083468;28;20395;-55
2022/12/23 04:30:17;;;;;;;2.33;0.82;;;12.10;99.90;;;;;;5100064;28;20103;-55
2022/12/23 04:32:43;;;;;;;1.55;0.73;;;12.10;99.90;;;;;;5084736;28;20032;-55
2022/12/23 04:35:09;;;;;;;1.25;0.80;;;12.10;99.90;;;;;;5100270;28;20025;-55
2022/12/23 04:37:34;;;;;;;1.15;0.60;;;12.10;99.90;;;;;;5100207;28;20056;-54
2022/12/23 04:40:00;;;;;;;2.67;0.82;;;12.10;99.90;;;;;;5084957;28;20032;-55
2022/12/23 04:42:25;;;;;;;1.73;0.82;;;12.20;99.90;;;;;;5084484;28;20043;-55
2022/12/23 04:44:51;;;;;;;2.05;0.90;;;12.20;99.90;;;;;;5100089;28;20043;-55
2022/12/23 04:47:16;;;;;;;2.63;0.90;;;12.20;99.90;;;;;;5100260;28;20033;-54
2022/12/23 04:49:42;;;;;;;1.55;0.95;;;12.20;99.90;;;;;;5100416;28;20202;-55
2022/12/23 04:52:07;;;;;;;2.80;1.20;;;12.20;99.90;;;;;;5100228;28;20012;-55
2022/12/23 04:54:33;;;;;;;3.10;0.80;;;12.20;99.90;;;;;;5083299;28;20096;-55
2022/12/23 04:56:58;;;;;;;2.63;1.02;;;12.20;99.90;;;;;;5099873;28;20350;-55
2022/12/23 04:59:24;;;;;;;2.95;0.65;;;12.20;99.90;;;;;;5100241;28;20107;-55
2022/12/23 05:01:50;;;;;;;2.35;1.00;;;12.20;99.90;;;;;;5101179;28;20110;-55
2022/12/23 05:04:15;;;;;;;1.80;0.68;;;12.20;99.90;;;;;;5100048;28;20033;-55
2022/12/23 05:06:41;;;;;;;1.70;0.60;;;12.20;99.90;;;;;;5099775;28;20072;-56
2022/12/23 05:09:06;;;;;;;4.78;1.15;;;12.20;99.90;;;;;;5099884;28;20058;-55
2022/12/23 05:11:32;;;;;;;3.10;0.88;;;12.20;99.90;;;;;;5084545;28;20040;-55
2022/12/23 05:13:57;;;;;;;3.28;0.85;;;12.20;99.90;;;;;;5084384;28;20037;-55
2022/12/23 05:16:23;;;;;;;4.13;1.00;;;12.30;99.90;;;;;;5083016;28;20043;-55
2022/12/23 05:18:48;;;;;;;6.30;1.20;;;12.30;99.90;;;;;;5100137;28;20029;-55
2022/12/23 05:21:14;;;;;;;5.60;1.05;;;12.30;99.90;;;;;;5100316;28;20025;-54
2022/12/23 05:23:39;;;;;;;2.65;0.85;;;12.30;99.90;;;;;;5103458;28;20105;-54
2022/12/23 05:26:05;;;;;;;8.65;1.23;;;12.30;99.90;;;;;;5120365;28;20028;-54
2022/12/23 05:28:31;;;;;;;3.05;0.77;;;12.30;99.90;;;;;;5087706;28;20025;-55
2022/12/23 05:31:01;;;;;;;1.45;0.80;;;12.30;99.90;;;;;;5103452;28;20016;-54
2022/12/23 05:33:26;;;;;;;2.45;0.85;;;12.30;99.90;;;;;;5103201;28;20028;-55
2022/12/23 05:35:52;;;;;;;5.43;0.95;;;12.30;99.90;;;;;;5087590;28;20040;-55
2022/12/23 05:38:17;;;;;;;3.90;1.23;;;12.30;99.90;;;;;;5103293;28;20045;-54
2022/12/23 05:40:43;;;;;;;3.00;0.95;;;12.30;99.90;;;;;;5103059;28;20097;-55
2022/12/23 05:43:08;;;;;;;6.68;1.42;;;12.30;99.90;;;;;;5102929;28;20040;-55
2022/12/23 05:45:35;;;;;;;5.28;1.15;;;12.30;99.90;;;;;;5086062;28;20029;-54
2022/12/23 05:48:00;;;;;;;3.70;1.27;;;12.30;99.90;;;;;;5086247;28;20024;-54
2022/12/23 05:50:26;;;;;;;7.00;0.98;;;12.30;99.90;;;;;;5086240;28;20085;-55
2022/12/23 05:52:51;;;;;;;4.28;1.02;;;12.40;99.90;;;;;;5086210;28;20021;-55
2022/12/23 05:55:17;;;;;;;3.33;1.15;;;12.30;99.90;;;;;;5102783;28;20103;-55
2022/12/23 05:57:42;;;;;;;5.70;1.42;;;12.40;99.90;;;;;;5103120;28;20036;-55
2022/12/23 06:00:08;;;;;;;1.52;0.90;;;12.40;99.90;;;;;;5102903;28;20078;-54
2022/12/23 06:02:34;;;;;;;1.92;0.98;;;12.40;99.90;;;;;;5102673;28;20364;-55
2022/12/23 06:04:59;;;;;;;5.45;1.05;;;12.40;99.90;;;;;;5102839;28;20021;-55
2022/12/23 06:07:25;;;;;;;2.85;0.77;;;12.40;99.90;;;;;;5085687;28;20030;-55
2022/12/23 06:09:51;;;;;;;3.35;1.17;;;12.40;99.90;;;;;;5102785;28;20449;-55
2022/12/23 06:12:16;;;;;;;2.38;0.80;;;12.30;99.90;;;;;;5085832;28;20032;-55
2022/12/23 06:14:42;;;;;;;6.03;1.10;;;12.30;99.90;;;;;;5087224;28;20029;-54
2022/12/23 06:17:07;;;;;;;3.30;1.00;;;12.30;99.90;;;;;;5102460;28;20029;-54
2022/12/23 06:19:33;;;;;;;0.70;0.70;;;12.40;99.90;;;;;;5085658;28;20089;-55
2022/12/23 06:21:58;;;;;;;12.80;1.20;;;12.30;99.90;;;;;;5086950;28;20021;-54
2022/12/23 06:24:24;;;;;;;1.98;0.88;;;12.30;99.90;;;;;;5087042;28;20032;-55
2022/12/23 06:26:49;;;;;;;2.60;1.10;;;12.30;99.90;;;;;;5086696;28;20067;-55
2022/12/23 06:29:15;;;;;;;2.10;0.98;;;12.30;99.90;;;;;;5086773;28;20032;-54
2022/12/23 06:31:40;;;;;;;1.05;0.73;;;12.40;99.90;;;;;;5102120;28;20028;-55
2022/12/23 06:34:06;;;;;;;2.53;0.90;;;12.40;99.90;;;;;;5102235;28;20051;-54
2022/12/23 06:36:31;;;;;;;3.22;1.08;;;12.40;99.90;;;;;;5103134;28;20062;-55
2022/12/23 06:38:57;;;;;;;2.22;1.00;;;12.40;99.90;;;;;;5103952;28;20029;-54
2022/12/23 06:41:22;;;;;;;2.47;0.95;;;12.40;99.90;;;;;;5086477;28;20114;-54
2022/12/23 06:43:48;;;;;;;2.58;1.10;;;12.40;99.90;;;;;;5085167;28;20060;-55
2022/12/23 06:46:13;;;;;;;1.70;0.77;;;12.40;99.90;;;;;;5086833;28;20032;-54
2022/12/23 06:48:39;;;;;;;4.05;0.90;;;12.40;99.90;;;;;;5086516;28;20437;-54
2022/12/23 06:51:05;;;;;;;4.25;0.82;;;12.40;99.90;;;;;;5086490;28;20070;-55
2022/12/23 06:53:30;;;;;;;1.60;0.88;;;12.30;99.90;;;;;;5086180;28;20093;-54
2022/12/23 06:56:02;;;;;;;3.78;0.93;;;12.40;99.90;;;;;;5101944;28;20016;-55
2022/12/23 06:58:28;;;;;;;1.63;0.93;;;12.40;99.90;;;;;;5101608;28;20038;-54
2022/12/23 07:00:53;;;;;;;1.92;0.98;;;12.40;99.90;;;;;;5086030;28;20052;-54
2022/12/23 07:03:19;;;;;;;1.27;0.63;;;12.40;99.90;;;;;;5101188;28;20033;-55
2022/12/23 07:05:48;;;;;;;1.75;0.65;;;12.40;99.90;;;;;;5101187;28;20111;-54
2022/12/23 07:08:14;;;;;;;3.25;1.00;;;12.40;99.90;;;;;;5084254;28;20016;-54
2022/12/23 07:10:40;;;;;;;1.85;0.70;;;12.40;99.90;;;;;;5085701;28;20401;-55
2022/12/23 07:13:05;;;;;;;1.20;0.65;;;12.40;99.90;;;;;;5084174;28;20059;-55
2022/12/23 07:15:31;;;;;;;1.90;0.70;;;12.40;99.90;;;;;;5101201;28;20024;-55
2022/12/23 07:17:56;;;;;;;3.25;0.73;;;12.40;99.90;;;;;;5085454;28;20021;-55
2022/12/23 07:20:22;;;;;;;1.42;0.57;;;12.40;99.90;;;;;;5085581;28;20373;-55
2022/12/23 07:22:49;;;;;;;2.08;0.70;;;12.40;99.90;;;;;;5083956;28;20141;-55
2022/12/23 07:25:15;;;;;;;2.45;0.90;;;12.40;99.90;;;;;;5083882;28;20084;-55
2022/12/23 07:27:41;;;;;;;2.50;0.77;;;12.40;99.90;;;;;;5083918;28;20032;-54
2022/12/23 07:30:07;;;;;;;3.22;0.93;;;12.40;99.90;;;;;;5101264;28;20059;-55
2022/12/23 07:32:33;;;;;;;1.17;0.60;;;12.40;99.90;;;;;;5085049;28;20022;-54
2022/12/23 07:34:58;;;;;;;0.82;0.70;;;12.40;99.90;;;;;;5085400;28;20111;-55
2022/12/23 07:37:24;;;;;;;1.70;0.88;;;12.40;99.90;;;;;;5101022;28;20028;-55
2022/12/23 07:39:49;;;;;;;5.28;1.55;;;12.50;99.90;;;;;;5085357;28;20037;-55
2022/12/23 07:42:15;;;;;;;4.95;1.30;;;12.40;99.90;;;;;;5100560;28;20020;-55
2022/12/23 07:44:40;;;;;;;3.45;1.20;;;12.50;99.90;;;;;;5084028;28;20124;-55
2022/12/23 07:47:06;;;;;;;5.72;1.25;;;12.50;99.90;;;;;;5084604;28;20028;-55
2022/12/23 07:49:31;;;;;;;5.82;1.35;;;12.50;99.90;;;;;;5083596;28;20025;-55
2022/12/23 07:51:57;;;;;;;6.78;1.33;;;12.50;99.90;;;;;;5084666;28;20024;-54
2022/12/23 07:54:22;;;;;;;7.20;1.30;;;12.50;99.90;;;;;;5084964;28;20154;-54
2022/12/23 07:56:48;;;;;;;10.13;1.60;;;12.50;99.90;;;;;;5083499;28;20024;-54
2022/12/23 07:59:13;;;;;;;8.50;1.60;;;12.50;99.90;;;;;;5084945;28;20157;-55
2022/12/23 08:01:39;;;;;;;20.48;1.70;;;12.50;99.90;;;;;;5100288;28;20356;-55
2022/12/23 08:04:05;;;;;;;13.55;1.85;;;12.50;99.90;;;;;;5100269;28;20438;-55
2022/12/23 08:06:31;;;;;;;19.20;2.80;;;12.50;99.90;;;;;;5100480;28;20033;-54
2022/12/23 08:08:56;;;;;;;29.40;4.70;;;12.50;99.90;;;;;;5100385;28;20032;-55
2022/12/23 08:11:22;;;;;;;25.60;3.42;;;12.50;99.90;;;;;;5083245;28;20374;-54
2022/12/23 08:13:48;;;;;;;27.55;3.88;;;12.50;99.90;;;;;;5083153;28;20029;-55
2022/12/23 08:16:13;;;;;;;28.88;3.70;;;12.50;99.90;;;;;;5100212;28;20028;-54
2022/12/23 08:18:39;;;;;;;19.42;3.15;;;12.60;99.90;;;;;;5099990;28;20445;-55
2022/12/23 08:21:13;;;;;;;25.42;3.47;;;12.60;99.90;;;;;;5083615;28;20037;-54
2022/12/23 08:23:39;;;;;;;29.40;3.58;;;12.60;99.90;;;;;;5083181;28;20510;-54
2022/12/23 08:26:04;;;;;;;44.95;5.15;;;12.60;99.90;;;;;;5083354;28;20024;-55
2022/12/23 08:28:30;;;;;;;23.95;3.95;;;12.60;99.90;;;;;;5084509;28;20420;-55
2022/12/23 08:31:11;;;;;;;49.63;5.45;;;12.60;99.90;;;;;;5100031;28;20055;-54
2022/12/23 08:33:37;;;;;;;37.10;5.13;;;12.60;99.90;;;;;;5084585;28;20032;-55
2022/12/23 08:36:05;;;;;;;105.40;10.95;;;12.70;99.90;;;;;;5084668;28;20058;-56
2022/12/23 08:38:30;;;;;;;46.78;7.07;;;12.70;99.90;;;;;;5083145;28;20029;-54
2022/12/23 08:40:56;;;;;;;52.05;6.40;;;12.60;99.90;;;;;;5100220;28;20029;-54
2022/12/23 08:43:21;;;;;;;33.05;4.40;;;12.70;99.90;;;;;;5083078;28;20032;-55
2022/12/23 08:45:47;;;;;;;28.58;4.13;;;12.70;99.90;;;;;;5084399;28;20466;-55
2022/12/23 08:48:12;;;;;;;40.47;4.75;;;12.70;99.90;;;;;;5099644;28;20067;-54
2022/12/23 08:50:43;;;;;;;38.22;4.85;;;12.70;99.90;;;;;;5099816;28;20021;-54
2022/12/23 08:53:09;;;;;;;40.97;5.00;;;12.70;99.90;;;;;;5084206;28;20029;-55
2022/12/23 08:55:42;;;;;;;52.80;7.90;;;12.80;99.90;;;;;;5100677;28;20021;-55
2022/12/23 08:58:07;;;;;;;63.58;7.53;;;12.80;99.90;;;;;;5088270;28;20063;-55
2022/12/23 09:00:33;;;;;;;44.40;5.60;;;12.80;99.90;;;;;;5103424;28;20452;-55
2022/12/23 09:02:58;;;;;;;64.65;6.78;;;12.80;99.90;;;;;;5103091;28;20388;-55
2022/12/23 09:05:24;;;;;;;53.20;6.32;;;12.80;99.90;;;;;;5102877;28;20481;-55
2022/12/23 09:07:50;;;;;;;62.17;8.40;;;12.80;99.90;;;;;;5086488;28;20020;-55
2022/12/23 09:10:15;;;;;;;65.38;8.10;;;12.90;99.90;;;;;;5086390;28;20088;-54
2022/12/23 09:12:41;;;;;;;47.40;6.78;;;12.90;99.90;;;;;;5103704;28;20032;-55
2022/12/23 09:15:07;;;;;;;34.45;5.00;;;12.90;99.90;;;;;;5087915;28;20029;-55
2022/12/23 09:17:33;;;;;;;33.30;5.47;;;12.90;99.90;;;;;;5086051;28;20038;-55
2022/12/23 09:19:58;;;;;;;48.42;6.03;;;12.90;99.90;;;;;;5082263;28;20043;-55
2022/12/23 09:22:24;;;;;;;52.95;7.35;;;12.90;99.90;;;;;;5086013;28;20036;-55
2022/12/23 09:24:49;;;;;;;62.03;7.72;;;12.90;99.90;;;;;;5087207;28;20037;-54
2022/12/23 09:27:15;;;;;;;76.22;9.70;;;13.00;99.90;;;;;;5084881;28;20112;-54
2022/12/23 09:29:40;;;;;;;77.28;8.23;;;13.00;99.90;;;;;;5085643;28;20025;-55
2022/12/23 09:32:06;;;;;;;80.50;8.48;;;13.00;99.90;;;;;;5085581;28;20062;-54
2022/12/23 09:34:31;;;;;;;78.38;8.70;;;13.00;99.90;;;;;;5087068;28;20079;-55
2022/12/23 09:36:57;;;;;;;80.18;9.27;;;13.00;99.90;;;;;;5085253;28;20404;-54
2022/12/23 09:39:23;;;;;;;74.28;9.02;;;13.10;99.90;;;;;;5085505;28;20040;-55
2022/12/23 09:42:01;;;;;;;58.60;8.07;;;13.10;99.90;;;;;;5085960;28;20027;-55
2022/12/23 09:44:56;;;;;;;66.07;8.57;;;13.10;99.90;;;;;;5086221;28;20041;-55
2022/12/23 09:47:23;;;;;;;43.58;6.82;;;13.10;99.90;;;;;;5086142;28;20029;-54
2022/12/23 09:49:54;;;;;;;53.63;7.57;;;13.10;99.90;;;;;;5085891;28;20024;-55
2022/12/23 09:52:24;;;;;;;51.65;7.75;;;13.10;99.90;;;;;;5084288;28;20025;-54
2022/12/23 09:54:51;;;;;;;60.38;8.13;;;13.20;99.90;;;;;;5069998;28;20025;-55
2022/12/23 09:57:35;;;;;;;63.83;8.52;;;13.20;99.90;;;;;;5080839;28;20039;-55
2022/12/23 10:00:02;;;;;;;75.03;8.70;;;13.20;99.90;;;;;;5083676;28;20096;-55
2022/12/23 10:03:02;;;;;;;57.55;6.65;;;13.20;99.90;;;;;;5058230;28;20025;-54
2022/12/23 10:05:57;;;;;;;43.10;6.15;;;13.20;99.90;;;;;;5066603;28;20029;-55
2022/12/23 10:08:35;;;;;;;36.90;6.03;;;13.20;99.90;;;;;;5082749;28;20032;-54
2022/12/23 10:11:12;;;;;;;111.22;11.55;;;13.20;99.90;;;;;;5084069;28;20051;-54
2022/12/23 10:13:40;;;;;;;98.38;10.15;;;13.20;99.90;;;;;;5091994;28;20037;-54
2022/12/23 10:16:19;;;;;;;76.90;7.57;;;13.30;99.90;;;;;;5073722;28;20033;-55
2022/12/23 10:18:55;;;;;;;72.47;10.27;;;13.30;99.90;;;;;;5114351;28;20104;-54
2022/12/23 10:21:42;;;;;;;89.47;10.38;;;13.30;99.90;;;;;;5098259;28;20059;-54
2022/12/23 10:24:21;;;;;;;77.30;10.07;;;13.30;99.90;;;;;;5083894;28;20024;-55
2022/12/23 10:26:52;;;;;;;77.93;11.70;;;13.30;99.90;;;;;;5090927;28;20111;-54
2022/12/23 10:29:19;;;;;;;112.75;12.75;;;13.30;99.90;;;;;;5084677;28;20036;-54
2022/12/23 10:32:13;;;;;;;135.63;15.57;;;13.30;99.90;;;;;;5094649;28;20056;-54
2022/12/23 10:34:57;;;;;;;96.65;11.07;;;13.30;99.90;;;;;;5081818;28;20021;-55
2022/12/23 10:37:41;;;;;;;84.90;11.20;;;13.30;99.90;;;;;;5082912;28;20048;-54
2022/12/23 10:40:23;;;;;;;85.70;9.23;;;13.70;99.90;;;;;;5086120;28;20044;-55
2022/12/23 10:43:22;;;;;;;85.88;10.18;;;13.40;99.90;;;;;;5083005;28;20076;-54
2022/12/23 10:46:14;;;;;;;119.43;11.68;;;13.40;99.90;;;;;;5081781;28;20385;-54
2022/12/23 10:49:03;;;;;;;128.40;12.38;;;13.40;99.90;;;;;;5097661;28;20060;-54
2022/12/23 10:51:48;;;;;;;136.93;12.77;;;13.40;99.90;;;;;;5097318;28;20020;-55
2022/12/23 10:54:31;;;;;;;96.38;11.60;;;13.40;99.90;;;;;;5083390;28;20036;-55
2022/12/23 10:56:56;;;;;;;138.77;14.82;;;13.40;99.90;;;;;;5084022;28;20061;-54
2022/12/23 10:59:25;;;;;;;135.13;13.95;;;13.40;99.90;;;;;;5084475;28;20116;-55
2022/12/23 11:01:54;;;;;;;67.75;10.43;;;13.40;99.90;;;;;;5081635;28;20031;-54
2022/12/23 11:04:25;;;;;;;62.38;9.30;;;13.50;99.90;;;;;;5075330;28;20033;-55
2022/12/23 11:06:51;;;;;;;78.38;8.85;;;13.50;99.90;;;;;;5083777;28;20020;-54
2022/12/23 11:09:24;;;;;;;60.15;6.97;;;13.50;99.90;;;;;;5075837;28;20063;-55
2022/12/23 11:12:02;;;;;;;52.38;7.25;;;13.50;99.90;;;;;;5081681;28;20070;-55
2022/12/23 11:14:49;;;;;;;91.82;9.10;;;13.50;99.90;;;;;;5083492;28;20044;-55
2022/12/23 11:17:20;;;;;;;77.50;9.55;;;13.50;99.90;;;;;;5083138;28;20032;-54
2022/12/23 11:19:46;;;;;;;87.72;9.18;;;13.50;99.90;;;;;;5083307;28;20037;-54
2022/12/23 11:22:23;;;;;;;62.78;7.38;;;13.50;99.90;;;;;;5080549;28;20461;-55
2022/12/23 11:24:48;;;;;;;100.75;11.32;;;13.60;99.90;;;;;;5063943;28;20119;-55
2022/12/23 11:27:15;;;;;;;73.60;9.10;;;13.50;99.90;;;;;;5083696;28;20040;-54
2022/12/23 11:29:49;;;;;;;63.08;9.02;;;13.60;99.90;;;;;;5083217;28;20085;-54
2022/12/23 11:32:24;;;;;;;90.35;10.98;;;13.60;99.90;;;;;;5082786;28;20047;-54
2022/12/23 11:34:49;;;;;;;81.68;9.07;;;13.60;99.90;;;;;;5083158;28;20029;-55
2022/12/23 11:37:35;;;;;;;77.90;8.93;;;13.60;99.90;;;;;;5080196;28;20031;-55
2022/12/23 11:40:09;;;;;;;90.38;11.98;;;13.60;99.90;;;;;;5074620;28;20081;-54
2022/12/23 11:42:35;;;;;;;102.05;12.15;;;13.60;99.90;;;;;;5082997;28;20061;-55
2022/12/23 11:45:00;;;;;;;111.68;13.60;;;13.60;99.90;;;;;;5081911;28;20062;-55
2022/12/23 11:47:32;;;;;;;106.45;12.05;;;13.60;99.90;;;;;;5065958;28;20078;-54
2022/12/23 11:50:01;;;;;;;85.97;10.75;;;13.60;99.90;;;;;;5082991;28;20047;-54
2022/12/23 11:52:31;;;;;;;97.28;12.70;;;13.70;99.90;;;;;;5081543;28;20051;-55
2022/12/23 11:54:58;;;;;;;120.40;13.20;;;13.70;99.90;;;;;;5080022;28;20028;-55
2022/12/23 11:57:31;;;;;;;95.32;11.77;;;13.70;99.90;;;;;;5099872;28;20154;-54
2022/12/23 12:00:00;;;;;;;116.50;13.85;;;13.70;99.90;;;;;;5082222;28;20036;-55
2022/12/23 12:02:35;;;;;;;83.15;11.43;;;13.70;99.90;;;;;;5085847;28;20040;-55
2022/12/23 12:05:15;;;;;;;110.05;13.48;;;13.70;99.90;;;;;;5083117;28;20028;-54
2022/12/23 12:07:42;;;;;;;71.93;9.10;;;13.70;99.90;;;;;;5082900;28;20433;-55
2022/12/23 12:10:10;;;;;;;58.67;7.57;;;13.80;99.90;;;;;;5080244;28;20032;-55
2022/12/23 12:12:35;;;;;;;168.30;15.30;;;13.80;99.90;;;;;;5065980;28;20020;-55
2022/12/23 12:15:01;;;;;;;255.43;22.90;;;13.80;99.90;;;;;;5079802;28;20479;-55
2022/12/23 12:17:43;;;;;;;130.70;14.20;;;13.80;99.90;;;;;;5081483;28;20033;-55
2022/12/23 12:20:17;;;;;;;144.98;15.48;;;13.80;99.90;;;;;;5085519;28;20036;-54
2022/12/23 12:23:01;;;;;;;154.18;15.45;;;13.80;99.90;;;;;;5082963;28;20062;-55
2022/12/23 12:25:48;;;;;;;60.08;8.25;;;13.80;99.90;;;;;;5062871;28;20031;-55
2022/12/23 12:28:21;;;;;;;73.88;9.50;;;13.80;99.90;;;;;;5081534;28;20058;-55
2022/12/23 12:31:04;;;;;;;120.28;12.20;;;13.80;99.90;;;;;;5082981;28;20024;-55
2022/12/23 12:33:34;;;;;;;102.22;11.07;;;13.90;99.90;;;;;;5086241;28;20207;-55
2022/12/23 12:36:33;;;;;;;97.88;13.73;;;13.90;99.90;;;;;;5086240;28;20078;-54
2022/12/23 12:38:59;;;;;;;92.35;12.20;;;13.90;99.90;;;;;;5101425;28;20043;-54
2022/12/23 12:41:32;;;;;;;131.55;14.93;;;13.90;99.90;;;;;;5084723;28;20088;-54
2022/12/23 12:44:25;;;;;;;106.18;13.32;;;13.90;99.90;;;;;;5084979;28;20051;-54
2022/12/23 12:46:57;;;;;;;155.65;14.85;;;13.90;99.90;;;;;;5083663;28;20041;-54
2022/12/23 12:49:40;;;;;;;142.23;15.70;;;14.00;99.90;;;;;;5085375;28;20050;-55
2022/12/23 12:52:18;;;;;;;228.93;22.20;;;14.00;99.90;;;;;;5066564;28;20029;-54
2022/12/23 12:54:49;;;;;;;133.95;15.27;;;14.00;99.90;;;;;;5082620;28;20433;-54
2022/12/23 12:57:16;;;;;;;132.05;14.65;;;14.00;99.90;;;;;;5097750;28;20032;-55
2022/12/23 12:59:42;;;;;;;102.50;14.02;;;14.10;99.90;;;;;;5092180;28;20484;-55
2022/12/23 13:02:25;;;;;;;137.82;12.95;;;14.10;99.90;;;;;;5085667;28;20032;-54
2022/12/23 13:05:01;;;;;;;820.35;78.43;;;14.10;99.90;;;;;;5085403;28;20032;-55
2022/12/23 13:07:38;;;;;;;230.98;21.63;;;14.10;99.90;;;;;;5067324;28;20024;-54
2022/12/23 13:10:25;;;;;;;145.73;16.27;;;14.10;99.90;;;;;;5082129;28;20044;-54
2022/12/23 13:13:10;;;;;;;127.97;15.57;;;14.10;99.90;;;;;;5086244;28;20096;-55
2022/12/23 13:16:04;;;;;;;157.52;17.20;;;14.10;99.90;;;;;;5086656;28;20033;-54
2022/12/23 13:19:03;;;;;;;151.85;17.10;;;14.10;99.90;;;;;;5084677;28;20109;-55
2022/12/23 13:21:45;;;;;;;160.15;17.80;;;14.10;99.90;;;;;;5084817;28;20025;-54
2022/12/23 13:24:30;;;;;;;164.55;16.17;;;14.10;99.90;;;;;;5084860;28;20051;-55